sensor_id;sensor_type;location;lat;lon;timestamp;P1;durP1;ratioP1;P2;durP2;ratioP2
4096;SDS011;2062;50.694;7.246;2024-01-16T00:00:21;17.42;;;4.68;;
4096;SDS011;2062;50.694;7.246;2024-01-16T00:02:50;10.82;;;4.82;;
4096;SDS011;2062;50.694;7.246;2024-01-16T00:05:16;10.02;;;4.45;;
4096;SDS011;2062;50.694;7.246;2024-01-16T00:07:43;11.95;;;4.55;;
4096;SDS011;2062;50.694;7.246;2024-01-16T00:10:10;13.97;;;4.63;;
4096;SDS011;2062;50.694;7.246;2024-01-16T00:12:37;14.07;;;4.78;;
4096;SDS011;2062;50.694;7.246;2024-01-16T00:15:05;14.90;;;5.15;;
4096;SDS011;2062;50.694;7.246;2024-01-16T00:17:33;13.50;;;4.82;;
4096;SDS011;2062;50.694;7.246;2024-01-16T00:20:01;12.18;;;4.70;;
4096;SDS011;2062;50.694;7.246;2024-01-16T00:22:30;11.60;;;4.80;;
4096;SDS011;2062;50.694;7.246;2024-01-16T00:24:56;10.38;;;4.18;;
4096;SDS011;2062;50.694;7.246;2024-01-16T00:27:24;16.75;;;4.95;;
4096;SDS011;2062;50.694;7.246;2024-01-16T00:29:51;10.73;;;4.47;;
4096;SDS011;2062;50.694;7.246;2024-01-16T00:32:17;13.02;;;4.63;;
4096;SDS011;2062;50.694;7.246;2024-01-16T00:34:44;12.47;;;4.50;;
4096;SDS011;2062;50.694;7.246;2024-01-16T00:37:12;12.60;;;4.45;;
4096;SDS011;2062;50.694;7.246;2024-01-16T00:39:39;12.00;;;4.35;;
4096;SDS011;2062;50.694;7.246;2024-01-16T00:42:06;13.55;;;4.93;;
4096;SDS011;2062;50.694;7.246;2024-01-16T00:44:33;11.38;;;4.50;;
4096;SDS011;2062;50.694;7.246;2024-01-16T00:47:00;10.47;;;4.57;;
4096;SDS011;2062;50.694;7.246;2024-01-16T00:49:27;11.98;;;4.53;;
4096;SDS011;2062;50.694;7.246;2024-01-16T00:51:54;11.23;;;4.70;;
4096;SDS011;2062;50.694;7.246;2024-01-16T00:54:22;10.57;;;4.43;;
4096;SDS011;2062;50.694;7.246;2024-01-16T00:56:49;11.43;;;5.05;;
4096;SDS011;2062;50.694;7.246;2024-01-16T00:59:20;12.40;;;4.30;;
4096;SDS011;2062;50.694;7.246;2024-01-16T01:01:47;14.07;;;4.93;;
4096;SDS011;2062;50.694;7.246;2024-01-16T01:04:13;12.57;;;4.43;;
4096;SDS011;2062;50.694;7.246;2024-01-16T01:06:40;12.32;;;4.55;;
4096;SDS011;2062;50.694;7.246;2024-01-16T01:09:07;17.15;;;4.78;;
4096;SDS011;2062;50.694;7.246;2024-01-16T01:11:38;12.13;;;4.50;;
4096;SDS011;2062;50.694;7.246;2024-01-16T01:14:05;16.45;;;4.80;;
4096;SDS011;2062;50.694;7.246;2024-01-16T01:16:31;10.48;;;4.65;;
4096;SDS011;2062;50.694;7.246;2024-01-16T01:18:58;15.93;;;5.00;;
4096;SDS011;2062;50.694;7.246;2024-01-16T01:21:25;10.50;;;4.38;;
4096;SDS011;2062;50.694;7.246;2024-01-16T01:23:52;14.07;;;4.40;;
4096;SDS011;2062;50.694;7.246;2024-01-16T01:26:19;15.80;;;4.88;;
4096;SDS011;2062;50.694;7.246;2024-01-16T01:28:47;11.85;;;4.35;;
4096;SDS011;2062;50.694;7.246;2024-01-16T01:31:14;12.35;;;4.72;;
4096;SDS011;2062;50.694;7.246;2024-01-16T01:33:41;15.25;;;5.07;;
4096;SDS011;2062;50.694;7.246;2024-01-16T01:36:08;11.57;;;4.70;;
4096;SDS011;2062;50.694;7.246;2024-01-16T01:38:35;16.05;;;5.00;;
4096;SDS011;2062;50.694;7.246;2024-01-16T01:41:01;13.95;;;4.93;;
4096;SDS011;2062;50.694;7.246;2024-01-16T01:43:29;11.38;;;4.57;;
4096;SDS011;2062;50.694;7.246;2024-01-16T01:46:07;12.10;;;4.60;;
4096;SDS011;2062;50.694;7.246;2024-01-16T01:48:36;14.27;;;4.50;;
4096;SDS011;2062;50.694;7.246;2024-01-16T01:51:03;12.38;;;4.70;;
4096;SDS011;2062;50.694;7.246;2024-01-16T01:53:30;12.60;;;4.22;;
4096;SDS011;2062;50.694;7.246;2024-01-16T01:55:59;13.73;;;4.20;;
4096;SDS011;2062;50.694;7.246;2024-01-16T01:58:29;12.77;;;4.40;;
4096;SDS011;2062;50.694;7.246;2024-01-16T02:00:56;11.90;;;4.37;;
4096;SDS011;2062;50.694;7.246;2024-01-16T02:03:24;13.25;;;4.50;;
4096;SDS011;2062;50.694;7.246;2024-01-16T02:05:53;13.82;;;4.28;;
4096;SDS011;2062;50.694;7.246;2024-01-16T02:08:21;10.32;;;4.00;;
4096;SDS011;2062;50.694;7.246;2024-01-16T02:10:49;9.50;;;3.90;;
4096;SDS011;2062;50.694;7.246;2024-01-16T02:13:18;12.60;;;4.53;;
4096;SDS011;2062;50.694;7.246;2024-01-16T02:15:48;10.45;;;4.25;;
4096;SDS011;2062;50.694;7.246;2024-01-16T02:18:15;12.90;;;4.22;;
4096;SDS011;2062;50.694;7.246;2024-01-16T02:20:43;11.95;;;4.03;;
4096;SDS011;2062;50.694;7.246;2024-01-16T02:23:12;14.23;;;3.85;;
4096;SDS011;2062;50.694;7.246;2024-01-16T02:25:42;10.77;;;4.07;;
4096;SDS011;2062;50.694;7.246;2024-01-16T02:28:09;15.80;;;4.10;;
4096;SDS011;2062;50.694;7.246;2024-01-16T02:30:36;12.48;;;4.35;;
4096;SDS011;2062;50.694;7.246;2024-01-16T02:33:03;11.57;;;4.30;;
4096;SDS011;2062;50.694;7.246;2024-01-16T02:35:30;13.02;;;4.28;;
4096;SDS011;2062;50.694;7.246;2024-01-16T02:37:57;9.50;;;3.97;;
4096;SDS011;2062;50.694;7.246;2024-01-16T02:40:25;13.45;;;5.10;;
4096;SDS011;2062;50.694;7.246;2024-01-16T02:42:53;13.15;;;4.45;;
4096;SDS011;2062;50.694;7.246;2024-01-16T02:45:20;16.83;;;4.75;;
4096;SDS011;2062;50.694;7.246;2024-01-16T02:47:47;11.98;;;5.05;;
4096;SDS011;2062;50.694;7.246;2024-01-16T02:50:14;11.57;;;4.30;;
4096;SDS011;2062;50.694;7.246;2024-01-16T02:52:41;13.98;;;4.72;;
4096;SDS011;2062;50.694;7.246;2024-01-16T02:55:08;12.52;;;3.92;;
4096;SDS011;2062;50.694;7.246;2024-01-16T02:57:35;17.92;;;4.70;;
4096;SDS011;2062;50.694;7.246;2024-01-16T03:00:03;13.75;;;4.32;;
4096;SDS011;2062;50.694;7.246;2024-01-16T03:02:32;13.67;;;4.90;;
4096;SDS011;2062;50.694;7.246;2024-01-16T03:04:59;13.10;;;5.38;;
4096;SDS011;2062;50.694;7.246;2024-01-16T03:07:28;13.07;;;4.85;;
4096;SDS011;2062;50.694;7.246;2024-01-16T03:09:55;14.68;;;5.03;;
4096;SDS011;2062;50.694;7.246;2024-01-16T03:12:22;13.13;;;4.70;;
4096;SDS011;2062;50.694;7.246;2024-01-16T03:14:48;16.27;;;4.97;;
4096;SDS011;2062;50.694;7.246;2024-01-16T03:17:16;10.63;;;4.68;;
4096;SDS011;2062;50.694;7.246;2024-01-16T03:19:43;15.25;;;4.05;;
4096;SDS011;2062;50.694;7.246;2024-01-16T03:22:10;14.52;;;4.57;;
4096;SDS011;2062;50.694;7.246;2024-01-16T03:24:37;15.60;;;4.72;;
4096;SDS011;2062;50.694;7.246;2024-01-16T03:27:04;15.83;;;4.90;;
4096;SDS011;2062;50.694;7.246;2024-01-16T03:29:31;12.82;;;4.38;;
4096;SDS011;2062;50.694;7.246;2024-01-16T03:31:58;15.25;;;5.40;;
4096;SDS011;2062;50.694;7.246;2024-01-16T03:34:27;12.85;;;4.18;;
4096;SDS011;2062;50.694;7.246;2024-01-16T03:36:54;15.18;;;5.00;;
4096;SDS011;2062;50.694;7.246;2024-01-16T03:39:20;11.13;;;4.27;;
4096;SDS011;2062;50.694;7.246;2024-01-16T03:41:47;14.23;;;4.18;;
4096;SDS011;2062;50.694;7.246;2024-01-16T03:44:14;13.45;;;4.28;;
4096;SDS011;2062;50.694;7.246;2024-01-16T03:46:41;11.88;;;4.32;;
4096;SDS011;2062;50.694;7.246;2024-01-16T03:49:07;10.82;;;4.38;;
4096;SDS011;2062;50.694;7.246;2024-01-16T03:51:36;10.77;;;4.73;;
4096;SDS011;2062;50.694;7.246;2024-01-16T03:54:02;13.07;;;4.13;;
4096;SDS011;2062;50.694;7.246;2024-01-16T03:56:29;12.50;;;4.53;;
4096;SDS011;2062;50.694;7.246;2024-01-16T03:58:56;13.25;;;4.28;;
4096;SDS011;2062;50.694;7.246;2024-01-16T04:01:29;13.05;;;4.60;;
4096;SDS011;2062;50.694;7.246;2024-01-16T04:03:56;11.23;;;4.60;;
4096;SDS011;2062;50.694;7.246;2024-01-16T04:06:23;13.38;;;4.70;;
4096;SDS011;2062;50.694;7.246;2024-01-16T04:08:52;14.95;;;4.63;;
4096;SDS011;2062;50.694;7.246;2024-01-16T04:11:19;12.38;;;4.35;;
4096;SDS011;2062;50.694;7.246;2024-01-16T04:13:46;10.60;;;4.32;;
4096;SDS011;2062;50.694;7.246;2024-01-16T04:16:12;8.60;;;3.77;;
4096;SDS011;2062;50.694;7.246;2024-01-16T04:18:40;13.48;;;4.38;;
4096;SDS011;2062;50.694;7.246;2024-01-16T04:21:08;11.00;;;4.07;;
4096;SDS011;2062;50.694;7.246;2024-01-16T04:23:35;13.07;;;4.93;;
4096;SDS011;2062;50.694;7.246;2024-01-16T04:26:03;11.25;;;4.47;;
4096;SDS011;2062;50.694;7.246;2024-01-16T04:28:30;12.83;;;4.37;;
4096;SDS011;2062;50.694;7.246;2024-01-16T04:30:57;12.73;;;4.78;;
4096;SDS011;2062;50.694;7.246;2024-01-16T04:33:23;11.77;;;4.47;;
4096;SDS011;2062;50.694;7.246;2024-01-16T04:35:50;12.15;;;4.13;;
4096;SDS011;2062;50.694;7.246;2024-01-16T04:38:17;14.52;;;4.57;;
4096;SDS011;2062;50.694;7.246;2024-01-16T04:40:44;11.03;;;4.83;;
4096;SDS011;2062;50.694;7.246;2024-01-16T04:43:12;10.55;;;4.13;;
4096;SDS011;2062;50.694;7.246;2024-01-16T04:45:39;12.00;;;4.60;;
4096;SDS011;2062;50.694;7.246;2024-01-16T04:48:05;13.88;;;4.05;;
4096;SDS011;2062;50.694;7.246;2024-01-16T04:50:33;9.27;;;4.15;;
4096;SDS011;2062;50.694;7.246;2024-01-16T04:53:00;12.03;;;4.33;;
4096;SDS011;2062;50.694;7.246;2024-01-16T04:55:27;13.23;;;4.50;;
4096;SDS011;2062;50.694;7.246;2024-01-16T04:57:54;9.07;;;3.55;;
4096;SDS011;2062;50.694;7.246;2024-01-16T05:00:22;11.40;;;3.88;;
4096;SDS011;2062;50.694;7.246;2024-01-16T05:02:49;12.63;;;3.85;;
4096;SDS011;2062;50.694;7.246;2024-01-16T05:05:16;15.67;;;4.13;;
4096;SDS011;2062;50.694;7.246;2024-01-16T05:07:43;10.07;;;3.60;;
4096;SDS011;2062;50.694;7.246;2024-01-16T05:10:11;13.30;;;4.10;;
4096;SDS011;2062;50.694;7.246;2024-01-16T05:12:38;13.48;;;4.18;;
4096;SDS011;2062;50.694;7.246;2024-01-16T05:15:06;16.38;;;4.60;;
4096;SDS011;2062;50.694;7.246;2024-01-16T05:17:34;12.13;;;3.80;;
4096;SDS011;2062;50.694;7.246;2024-01-16T05:20:01;11.52;;;4.20;;
4096;SDS011;2062;50.694;7.246;2024-01-16T05:22:30;11.68;;;4.22;;
4096;SDS011;2062;50.694;7.246;2024-01-16T05:24:57;15.90;;;4.75;;
4096;SDS011;2062;50.694;7.246;2024-01-16T05:27:25;15.05;;;3.90;;
4096;SDS011;2062;50.694;7.246;2024-01-16T05:29:52;17.90;;;4.70;;
4096;SDS011;2062;50.694;7.246;2024-01-16T05:32:18;13.48;;;4.80;;
4096;SDS011;2062;50.694;7.246;2024-01-16T05:34:46;12.00;;;4.88;;
4096;SDS011;2062;50.694;7.246;2024-01-16T05:37:13;13.95;;;4.45;;
4096;SDS011;2062;50.694;7.246;2024-01-16T05:39:40;12.77;;;4.78;;
4096;SDS011;2062;50.694;7.246;2024-01-16T05:42:07;10.67;;;4.30;;
4096;SDS011;2062;50.694;7.246;2024-01-16T05:44:34;10.75;;;4.30;;
4096;SDS011;2062;50.694;7.246;2024-01-16T05:47:01;14.65;;;5.38;;
4096;SDS011;2062;50.694;7.246;2024-01-16T05:49:28;11.05;;;3.78;;
4096;SDS011;2062;50.694;7.246;2024-01-16T05:51:56;10.30;;;4.43;;
4096;SDS011;2062;50.694;7.246;2024-01-16T05:54:23;14.90;;;4.17;;
4096;SDS011;2062;50.694;7.246;2024-01-16T05:56:49;16.10;;;4.43;;
4096;SDS011;2062;50.694;7.246;2024-01-16T05:59:16;12.00;;;4.50;;
4096;SDS011;2062;50.694;7.246;2024-01-16T06:01:43;14.32;;;4.10;;
4096;SDS011;2062;50.694;7.246;2024-01-16T06:04:10;13.02;;;3.70;;
4096;SDS011;2062;50.694;7.246;2024-01-16T06:06:36;13.90;;;4.43;;
4096;SDS011;2062;50.694;7.246;2024-01-16T06:09:05;12.75;;;3.90;;
4096;SDS011;2062;50.694;7.246;2024-01-16T06:11:32;14.80;;;4.05;;
4096;SDS011;2062;50.694;7.246;2024-01-16T06:13:59;10.15;;;3.60;;
4096;SDS011;2062;50.694;7.246;2024-01-16T06:16:26;11.57;;;4.00;;
4096;SDS011;2062;50.694;7.246;2024-01-16T06:18:54;9.67;;;3.70;;
4096;SDS011;2062;50.694;7.246;2024-01-16T06:21:21;10.43;;;3.65;;
4096;SDS011;2062;50.694;7.246;2024-01-16T06:23:47;10.25;;;3.60;;
4096;SDS011;2062;50.694;7.246;2024-01-16T06:26:16;12.25;;;3.50;;
4096;SDS011;2062;50.694;7.246;2024-01-16T06:28:42;11.27;;;3.75;;
4096;SDS011;2062;50.694;7.246;2024-01-16T06:31:09;10.63;;;3.20;;
4096;SDS011;2062;50.694;7.246;2024-01-16T06:33:36;12.70;;;3.50;;
4096;SDS011;2062;50.694;7.246;2024-01-16T06:36:03;10.80;;;3.40;;
4096;SDS011;2062;50.694;7.246;2024-01-16T06:38:31;12.23;;;3.50;;
4096;SDS011;2062;50.694;7.246;2024-01-16T06:40:57;8.63;;;3.05;;
4096;SDS011;2062;50.694;7.246;2024-01-16T06:43:27;9.00;;;2.93;;
4096;SDS011;2062;50.694;7.246;2024-01-16T06:45:53;8.57;;;2.58;;
4096;SDS011;2062;50.694;7.246;2024-01-16T06:48:20;10.82;;;3.40;;
4096;SDS011;2062;50.694;7.246;2024-01-16T06:50:48;9.98;;;2.60;;
4096;SDS011;2062;50.694;7.246;2024-01-16T06:53:15;14.20;;;2.63;;
4096;SDS011;2062;50.694;7.246;2024-01-16T06:55:41;10.03;;;2.90;;
4096;SDS011;2062;50.694;7.246;2024-01-16T06:58:08;10.88;;;2.75;;
4096;SDS011;2062;50.694;7.246;2024-01-16T07:00:37;12.82;;;2.58;;
4096;SDS011;2062;50.694;7.246;2024-01-16T07:03:06;6.95;;;2.35;;
4096;SDS011;2062;50.694;7.246;2024-01-16T07:05:33;10.73;;;2.30;;
4096;SDS011;2062;50.694;7.246;2024-01-16T07:08:00;9.93;;;2.50;;
4096;SDS011;2062;50.694;7.246;2024-01-16T07:10:27;7.35;;;2.17;;
4096;SDS011;2062;50.694;7.246;2024-01-16T07:12:53;7.93;;;2.47;;
4096;SDS011;2062;50.694;7.246;2024-01-16T07:15:21;7.05;;;2.22;;
4096;SDS011;2062;50.694;7.246;2024-01-16T07:17:49;9.85;;;2.15;;
4096;SDS011;2062;50.694;7.246;2024-01-16T07:20:16;7.67;;;2.03;;
4096;SDS011;2062;50.694;7.246;2024-01-16T07:22:43;7.30;;;1.85;;
4096;SDS011;2062;50.694;7.246;2024-01-16T07:25:10;6.10;;;2.10;;
4096;SDS011;2062;50.694;7.246;2024-01-16T07:27:37;6.72;;;2.08;;
4096;SDS011;2062;50.694;7.246;2024-01-16T07:30:04;9.30;;;1.98;;
4096;SDS011;2062;50.694;7.246;2024-01-16T07:32:32;9.93;;;1.93;;
4096;SDS011;2062;50.694;7.246;2024-01-16T07:35:00;8.90;;;2.30;;
4096;SDS011;2062;50.694;7.246;2024-01-16T07:37:27;6.82;;;1.90;;
4096;SDS011;2062;50.694;7.246;2024-01-16T07:39:54;11.38;;;2.00;;
4096;SDS011;2062;50.694;7.246;2024-01-16T07:42:21;6.68;;;1.92;;
4096;SDS011;2062;50.694;7.246;2024-01-16T07:44:48;5.40;;;1.60;;
4096;SDS011;2062;50.694;7.246;2024-01-16T07:47:14;7.00;;;1.85;;
4096;SDS011;2062;50.694;7.246;2024-01-16T07:49:41;7.03;;;1.80;;
4096;SDS011;2062;50.694;7.246;2024-01-16T07:52:09;8.70;;;1.98;;
4096;SDS011;2062;50.694;7.246;2024-01-16T07:54:37;8.55;;;1.83;;
4096;SDS011;2062;50.694;7.246;2024-01-16T07:57:04;8.47;;;1.90;;
4096;SDS011;2062;50.694;7.246;2024-01-16T07:59:31;5.30;;;1.50;;
4096;SDS011;2062;50.694;7.246;2024-01-16T08:01:58;6.78;;;1.63;;
4096;SDS011;2062;50.694;7.246;2024-01-16T08:04:25;4.75;;;1.60;;
4096;SDS011;2062;50.694;7.246;2024-01-16T08:06:52;6.97;;;1.50;;
4096;SDS011;2062;50.694;7.246;2024-01-16T08:09:20;7.67;;;1.80;;
4096;SDS011;2062;50.694;7.246;2024-01-16T08:11:47;7.13;;;1.58;;
4096;SDS011;2062;50.694;7.246;2024-01-16T08:14:13;6.53;;;1.38;;
4096;SDS011;2062;50.694;7.246;2024-01-16T08:16:40;7.20;;;1.63;;
4096;SDS011;2062;50.694;7.246;2024-01-16T08:19:07;5.30;;;1.40;;
4096;SDS011;2062;50.694;7.246;2024-01-16T08:21:34;6.13;;;1.40;;
4096;SDS011;2062;50.694;7.246;2024-01-16T08:23:59;6.35;;;1.30;;
4096;SDS011;2062;50.694;7.246;2024-01-16T08:26:28;5.28;;;1.48;;
4096;SDS011;2062;50.694;7.246;2024-01-16T08:28:55;6.80;;;1.50;;
4096;SDS011;2062;50.694;7.246;2024-01-16T08:31:22;8.73;;;1.30;;
4096;SDS011;2062;50.694;7.246;2024-01-16T08:33:48;11.40;;;1.33;;
4096;SDS011;2062;50.694;7.246;2024-01-16T08:36:15;12.15;;;1.48;;
4096;SDS011;2062;50.694;7.246;2024-01-16T08:38:42;7.55;;;1.70;;
4096;SDS011;2062;50.694;7.246;2024-01-16T08:41:09;6.05;;;1.23;;
4096;SDS011;2062;50.694;7.246;2024-01-16T08:43:37;6.90;;;1.47;;
4096;SDS011;2062;50.694;7.246;2024-01-16T08:46:04;6.60;;;1.48;;
4096;SDS011;2062;50.694;7.246;2024-01-16T08:48:31;8.00;;;1.60;;
4096;SDS011;2062;50.694;7.246;2024-01-16T08:50:58;5.15;;;1.52;;
4096;SDS011;2062;50.694;7.246;2024-01-16T08:53:25;5.70;;;1.45;;
4096;SDS011;2062;50.694;7.246;2024-01-16T08:55:52;9.07;;;1.37;;
4096;SDS011;2062;50.694;7.246;2024-01-16T08:58:19;7.72;;;1.60;;
4096;SDS011;2062;50.694;7.246;2024-01-16T09:00:47;4.93;;;1.50;;
4096;SDS011;2062;50.694;7.246;2024-01-16T09:03:14;7.90;;;1.50;;
4096;SDS011;2062;50.694;7.246;2024-01-16T09:05:42;6.13;;;1.20;;
4096;SDS011;2062;50.694;7.246;2024-01-16T09:08:09;8.57;;;1.20;;
4096;SDS011;2062;50.694;7.246;2024-01-16T09:10:36;7.55;;;1.40;;
4096;SDS011;2062;50.694;7.246;2024-01-16T09:13:03;6.53;;;1.60;;
4096;SDS011;2062;50.694;7.246;2024-01-16T09:15:30;10.73;;;1.70;;
4096;SDS011;2062;50.694;7.246;2024-01-16T09:17:58;7.88;;;1.77;;
4096;SDS011;2062;50.694;7.246;2024-01-16T09:20:25;10.03;;;1.80;;
4096;SDS011;2062;50.694;7.246;2024-01-16T09:22:52;6.60;;;1.38;;
4096;SDS011;2062;50.694;7.246;2024-01-16T09:25:19;11.40;;;1.98;;
4096;SDS011;2062;50.694;7.246;2024-01-16T09:27:48;6.90;;;1.80;;
4096;SDS011;2062;50.694;7.246;2024-01-16T09:30:15;7.65;;;1.48;;
4096;SDS011;2062;50.694;7.246;2024-01-16T09:32:42;5.37;;;1.50;;
4096;SDS011;2062;50.694;7.246;2024-01-16T09:35:11;8.70;;;1.60;;
4096;SDS011;2062;50.694;7.246;2024-01-16T09:37:38;4.63;;;1.27;;
4096;SDS011;2062;50.694;7.246;2024-01-16T09:40:06;7.75;;;1.40;;
4096;SDS011;2062;50.694;7.246;2024-01-16T09:42:33;6.43;;;1.52;;
4096;SDS011;2062;50.694;7.246;2024-01-16T09:45:00;5.63;;;1.40;;
4096;SDS011;2062;50.694;7.246;2024-01-16T09:47:28;6.05;;;1.50;;
4096;SDS011;2062;50.694;7.246;2024-01-16T09:49:57;7.28;;;1.52;;
4096;SDS011;2062;50.694;7.246;2024-01-16T09:52:26;6.55;;;1.60;;
4096;SDS011;2062;50.694;7.246;2024-01-16T09:54:53;6.55;;;1.65;;
4096;SDS011;2062;50.694;7.246;2024-01-16T09:57:20;7.60;;;1.40;;
4096;SDS011;2062;50.694;7.246;2024-01-16T09:59:50;7.95;;;1.42;;
4096;SDS011;2062;50.694;7.246;2024-01-16T10:02:18;9.98;;;1.60;;
4096;SDS011;2062;50.694;7.246;2024-01-16T10:04:46;4.40;;;1.33;;
4096;SDS011;2062;50.694;7.246;2024-01-16T10:07:13;5.82;;;1.42;;
4096;SDS011;2062;50.694;7.246;2024-01-16T10:09:44;6.10;;;1.30;;
4096;SDS011;2062;50.694;7.246;2024-01-16T10:12:10;5.07;;;1.50;;
4096;SDS011;2062;50.694;7.246;2024-01-16T10:14:38;7.22;;;1.73;;
4096;SDS011;2062;50.694;7.246;2024-01-16T10:17:05;5.00;;;1.45;;
4096;SDS011;2062;50.694;7.246;2024-01-16T10:19:46;5.32;;;1.38;;
4096;SDS011;2062;50.694;7.246;2024-01-16T10:22:18;5.23;;;1.20;;
4096;SDS011;2062;50.694;7.246;2024-01-16T10:24:47;7.07;;;1.63;;
4096;SDS011;2062;50.694;7.246;2024-01-16T10:27:15;5.43;;;1.33;;
4096;SDS011;2062;50.694;7.246;2024-01-16T10:29:49;7.63;;;1.63;;
4096;SDS011;2062;50.694;7.246;2024-01-16T10:32:27;7.57;;;1.52;;
4096;SDS011;2062;50.694;7.246;2024-01-16T10:35:01;8.80;;;1.63;;
4096;SDS011;2062;50.694;7.246;2024-01-16T10:37:30;7.97;;;1.50;;
4096;SDS011;2062;50.694;7.246;2024-01-16T10:39:58;6.55;;;1.50;;
4096;SDS011;2062;50.694;7.246;2024-01-16T10:42:25;8.38;;;1.45;;
4096;SDS011;2062;50.694;7.246;2024-01-16T10:44:54;8.75;;;2.10;;
4096;SDS011;2062;50.694;7.246;2024-01-16T10:47:21;6.63;;;1.30;;
4096;SDS011;2062;50.694;7.246;2024-01-16T10:49:48;9.02;;;1.60;;
4096;SDS011;2062;50.694;7.246;2024-01-16T10:52:15;5.10;;;1.40;;
4096;SDS011;2062;50.694;7.246;2024-01-16T10:54:44;8.15;;;1.88;;
4096;SDS011;2062;50.694;7.246;2024-01-16T10:57:15;5.90;;;1.60;;
4096;SDS011;2062;50.694;7.246;2024-01-16T10:59:45;7.17;;;1.80;;
4096;SDS011;2062;50.694;7.246;2024-01-16T11:02:22;3.63;;;1.30;;
4096;SDS011;2062;50.694;7.246;2024-01-16T11:04:53;7.70;;;1.70;;
4096;SDS011;2062;50.694;7.246;2024-01-16T11:07:22;5.53;;;1.60;;
4096;SDS011;2062;50.694;7.246;2024-01-16T11:09:51;6.50;;;1.63;;
4096;SDS011;2062;50.694;7.246;2024-01-16T11:12:21;8.13;;;1.60;;
4096;SDS011;2062;50.694;7.246;2024-01-16T11:14:51;5.70;;;1.40;;
4096;SDS011;2062;50.694;7.246;2024-01-16T11:17:18;5.22;;;1.38;;
4096;SDS011;2062;50.694;7.246;2024-01-16T11:19:46;6.97;;;1.48;;
4096;SDS011;2062;50.694;7.246;2024-01-16T11:22:14;4.97;;;1.42;;
4096;SDS011;2062;50.694;7.246;2024-01-16T11:24:42;12.57;;;1.97;;
4096;SDS011;2062;50.694;7.246;2024-01-16T11:27:11;10.35;;;1.85;;
4096;SDS011;2062;50.694;7.246;2024-01-16T11:29:49;6.18;;;1.60;;
4096;SDS011;2062;50.694;7.246;2024-01-16T11:32:32;6.97;;;1.40;;
4096;SDS011;2062;50.694;7.246;2024-01-16T11:35:00;5.15;;;1.10;;
4096;SDS011;2062;50.694;7.246;2024-01-16T11:37:27;4.40;;;1.30;;
4096;SDS011;2062;50.694;7.246;2024-01-16T11:42:50;6.47;;;1.48;;
4096;SDS011;2062;50.694;7.246;2024-01-16T11:48:17;7.32;;;1.33;;
4096;SDS011;2062;50.694;7.246;2024-01-16T11:50:44;9.10;;;1.40;;
4096;SDS011;2062;50.694;7.246;2024-01-16T11:53:25;7.55;;;1.38;;
4096;SDS011;2062;50.694;7.246;2024-01-16T11:56:02;5.45;;;1.35;;
4096;SDS011;2062;50.694;7.246;2024-01-16T11:58:52;6.90;;;1.45;;
4096;SDS011;2062;50.694;7.246;2024-01-16T12:01:29;6.40;;;1.27;;
4096;SDS011;2062;50.694;7.246;2024-01-16T12:04:01;7.07;;;1.60;;
4096;SDS011;2062;50.694;7.246;2024-01-16T12:06:28;5.90;;;1.58;;
4096;SDS011;2062;50.694;7.246;2024-01-16T12:09:09;5.10;;;1.27;;
4096;SDS011;2062;50.694;7.246;2024-01-16T12:11:37;5.30;;;1.45;;
4096;SDS011;2062;50.694;7.246;2024-01-16T12:14:05;7.43;;;1.70;;
4096;SDS011;2062;50.694;7.246;2024-01-16T12:16:32;8.63;;;1.50;;
4096;SDS011;2062;50.694;7.246;2024-01-16T12:19:03;6.13;;;1.50;;
4096;SDS011;2062;50.694;7.246;2024-01-16T12:23:59;5.47;;;1.50;;
4096;SDS011;2062;50.694;7.246;2024-01-16T12:26:26;8.27;;;1.73;;
4096;SDS011;2062;50.694;7.246;2024-01-16T12:28:53;10.33;;;1.50;;
4096;SDS011;2062;50.694;7.246;2024-01-16T12:31:21;10.15;;;1.92;;
4096;SDS011;2062;50.694;7.246;2024-01-16T12:33:49;5.43;;;1.63;;
4096;SDS011;2062;50.694;7.246;2024-01-16T12:36:16;8.25;;;1.90;;
4096;SDS011;2062;50.694;7.246;2024-01-16T12:38:43;7.72;;;1.85;;
4096;SDS011;2062;50.694;7.246;2024-01-16T12:41:10;12.67;;;1.93;;
4096;SDS011;2062;50.694;7.246;2024-01-16T12:43:38;6.90;;;1.42;;
4096;SDS011;2062;50.694;7.246;2024-01-16T12:46:05;9.35;;;2.05;;
4096;SDS011;2062;50.694;7.246;2024-01-16T12:48:34;7.72;;;1.80;;
4096;SDS011;2062;50.694;7.246;2024-01-16T12:51:02;5.72;;;1.70;;
4096;SDS011;2062;50.694;7.246;2024-01-16T12:53:29;6.80;;;1.60;;
4096;SDS011;2062;50.694;7.246;2024-01-16T12:56:00;8.75;;;1.90;;
4096;SDS011;2062;50.694;7.246;2024-01-16T12:58:31;9.95;;;1.83;;
4096;SDS011;2062;50.694;7.246;2024-01-16T13:01:04;9.35;;;1.80;;
4096;SDS011;2062;50.694;7.246;2024-01-16T13:03:52;6.93;;;2.00;;
4096;SDS011;2062;50.694;7.246;2024-01-16T13:06:19;7.73;;;2.00;;
4096;SDS011;2062;50.694;7.246;2024-01-16T13:08:47;10.93;;;2.00;;
4096;SDS011;2062;50.694;7.246;2024-01-16T13:11:14;6.60;;;1.95;;
4096;SDS011;2062;50.694;7.246;2024-01-16T13:13:44;6.32;;;2.30;;
4096;SDS011;2062;50.694;7.246;2024-01-16T13:16:12;6.82;;;2.22;;
4096;SDS011;2062;50.694;7.246;2024-01-16T13:18:40;9.50;;;2.30;;
4096;SDS011;2062;50.694;7.246;2024-01-16T13:21:08;6.68;;;1.77;;
4096;SDS011;2062;50.694;7.246;2024-01-16T13:23:35;5.55;;;1.88;;
4096;SDS011;2062;50.694;7.246;2024-01-16T13:26:02;7.90;;;2.22;;
4096;SDS011;2062;50.694;7.246;2024-01-16T13:28:29;7.15;;;2.08;;
4096;SDS011;2062;50.694;7.246;2024-01-16T13:30:57;6.03;;;2.07;;
4096;SDS011;2062;50.694;7.246;2024-01-16T13:33:23;6.38;;;1.80;;
4096;SDS011;2062;50.694;7.246;2024-01-16T13:35:51;8.18;;;1.73;;
4096;SDS011;2062;50.694;7.246;2024-01-16T13:38:21;7.13;;;1.90;;
4096;SDS011;2062;50.694;7.246;2024-01-16T13:40:47;7.18;;;1.77;;
4096;SDS011;2062;50.694;7.246;2024-01-16T13:43:15;7.20;;;1.90;;
4096;SDS011;2062;50.694;7.246;2024-01-16T13:45:42;8.63;;;1.95;;
4096;SDS011;2062;50.694;7.246;2024-01-16T13:48:09;8.60;;;1.70;;
4096;SDS011;2062;50.694;7.246;2024-01-16T13:50:35;4.53;;;1.70;;
4096;SDS011;2062;50.694;7.246;2024-01-16T13:53:03;6.25;;;1.80;;
4096;SDS011;2062;50.694;7.246;2024-01-16T13:55:31;8.60;;;1.90;;
4096;SDS011;2062;50.694;7.246;2024-01-16T13:57:58;7.63;;;1.83;;
4096;SDS011;2062;50.694;7.246;2024-01-16T14:00:25;5.53;;;1.80;;
4096;SDS011;2062;50.694;7.246;2024-01-16T14:02:52;7.90;;;2.10;;
4096;SDS011;2062;50.694;7.246;2024-01-16T14:05:19;7.40;;;2.40;;
4096;SDS011;2062;50.694;7.246;2024-01-16T14:07:47;8.67;;;2.37;;
4096;SDS011;2062;50.694;7.246;2024-01-16T14:10:16;8.18;;;2.20;;
4096;SDS011;2062;50.694;7.246;2024-01-16T14:12:45;6.50;;;2.10;;
4096;SDS011;2062;50.694;7.246;2024-01-16T14:15:14;5.82;;;1.70;;
4096;SDS011;2062;50.694;7.246;2024-01-16T14:17:43;8.07;;;2.20;;
4096;SDS011;2062;50.694;7.246;2024-01-16T14:20:11;5.73;;;1.97;;
4096;SDS011;2062;50.694;7.246;2024-01-16T14:22:38;9.43;;;2.33;;
4096;SDS011;2062;50.694;7.246;2024-01-16T14:25:06;8.73;;;2.45;;
4096;SDS011;2062;50.694;7.246;2024-01-16T14:27:36;6.70;;;2.10;;
4096;SDS011;2062;50.694;7.246;2024-01-16T14:30:06;8.52;;;2.38;;
4096;SDS011;2062;50.694;7.246;2024-01-16T14:32:35;8.30;;;2.50;;
4096;SDS011;2062;50.694;7.246;2024-01-16T14:35:03;8.80;;;2.28;;
4096;SDS011;2062;50.694;7.246;2024-01-16T14:37:30;6.72;;;2.28;;
4096;SDS011;2062;50.694;7.246;2024-01-16T14:39:57;9.07;;;2.30;;
4096;SDS011;2062;50.694;7.246;2024-01-16T14:42:26;7.00;;;2.10;;
4096;SDS011;2062;50.694;7.246;2024-01-16T14:44:53;5.20;;;1.73;;
4096;SDS011;2062;50.694;7.246;2024-01-16T14:47:21;9.48;;;2.10;;
4096;SDS011;2062;50.694;7.246;2024-01-16T14:49:49;10.50;;;2.35;;
4096;SDS011;2062;50.694;7.246;2024-01-16T14:52:15;7.32;;;2.25;;
4096;SDS011;2062;50.694;7.246;2024-01-16T14:54:43;5.82;;;2.20;;
4096;SDS011;2062;50.694;7.246;2024-01-16T14:57:10;7.37;;;2.23;;
4096;SDS011;2062;50.694;7.246;2024-01-16T14:59:37;8.80;;;2.20;;
4096;SDS011;2062;50.694;7.246;2024-01-16T15:02:04;6.70;;;2.75;;
4096;SDS011;2062;50.694;7.246;2024-01-16T15:04:38;7.68;;;2.15;;
4096;SDS011;2062;50.694;7.246;2024-01-16T15:07:05;5.93;;;2.13;;
4096;SDS011;2062;50.694;7.246;2024-01-16T15:09:33;7.33;;;2.27;;
4096;SDS011;2062;50.694;7.246;2024-01-16T15:12:02;6.40;;;2.03;;
4096;SDS011;2062;50.694;7.246;2024-01-16T15:14:30;7.35;;;2.13;;
4096;SDS011;2062;50.694;7.246;2024-01-16T15:16:59;9.07;;;2.17;;
4096;SDS011;2062;50.694;7.246;2024-01-16T15:19:26;7.07;;;1.75;;